Aeroporto :







RITROVATECI SU...

 
LOGIN :

Iscrizione | Disclaimer

   EN    FR    IT 

 









Sommario :    VFR   VFR Marginale   IFR   IFR Intensivo   IFR Molto Intensivo
Visibilità : 
Base nubi : 
>= 8 km
>= 3000ft
5 / 8 km
1000 / 3000 ft
1500m / 5 km
500 / 1000 ft
800 / 1500m
200 / 500 ft
< 800m
< 200 ft
Simboli :   Temporali  Nebbia  Neve Forte  Precipitazioni Forti  Vento > 20 kt






- Altitudine del aeroporto : 121 ft
- Codice IATA : YBX


CYBX - Lourdes De Blanc Sablon

ULTIMO METAR :
  • 221300Z 03010KT 15SM BKN028 M01/M03 A2977 RMK SC7 SLP086

METARs OBSOLETI :
  • 221200Z 02009KT 15SM OVC025 M02/M03 A2979 RMK SC8 SLP093
  • 221131Z 01008KT 15SM BKN024 M02/M03 A2980 RMK SC7 SLP095
  • 221107Z 04011KT 10SM -SN BKN025 M02/M03 A2979 RMK CU5 SLP093

TAF TAF CYBX
Valido dal 22 a 08 ore il 22 a 20 ore UTC


220738Z 2208/2220 04010G20KT P6SM BKN025
TEMPO 2208/2220 5SM -SN BKN020
PROB30 2216/2220 2SM -FZDZ -SNPL BR RMK NXT FCST BY 221400Z



MetMap, La meteo Aeronautica in un colpo d'occhio ! - Copyright ORBIFLY Dicembre 2007 - Disclaimer

ORBIFLY MET'MAP TEAM :

Programmazione e sviluppo : Alexandra Zaïnal
Concezione e sviluppo : Baudouin d'Aumeries
Co-Programmazione e sviluppo : Marc-Olivier Méhu
Supporto tecnico e logistico : Manuel Goepfert
Aiuto per la traduzione : Arnaldo La Scala

Contatto : metmap@orbifly.com




FONTI E CREDITI :

   NOAA